createdAt,value
2019-04-21T00:00:54.286Z,38.90
2019-04-21T00:03:25.785Z,39.30
2019-04-21T00:06:09.457Z,39.60
2019-04-21T00:08:38.961Z,39.90
2019-04-21T00:11:09.667Z,40.50
2019-04-21T00:13:32.966Z,40.90
2019-04-21T00:15:54.062Z,41.40
2019-04-21T00:18:47.673Z,42.10
2019-04-21T00:21:17.542Z,42.30
2019-04-21T00:23:58.469Z,42.70
2019-04-21T00:26:29.079Z,43.30
2019-04-21T00:29:04.012Z,43.10
2019-04-21T00:31:25.410Z,43.60
2019-04-21T00:33:41.635Z,43.60
2019-04-21T00:36:16.715Z,43.80
2019-04-21T00:39:09.898Z,43.80
2019-04-21T00:41:30.783Z,44.10
2019-04-21T00:43:49.045Z,44.30
2019-04-21T00:46:26.634Z,44.20
2019-04-21T00:49:00.350Z,44.60
2019-04-21T00:51:40.203Z,44.90
2019-04-21T00:54:04.073Z,44.70
2019-04-21T00:56:28.832Z,44.70
2019-04-21T00:58:59.318Z,45.70
2019-04-21T01:01:27.516Z,45.70
2019-04-21T01:04:04.845Z,45.90
2019-04-21T01:06:29.163Z,46.20
2019-04-21T01:09:00.901Z,46.60
2019-04-21T01:11:23.841Z,47.40
2019-04-21T01:13:58.015Z,47.50
2019-04-21T01:16:37.421Z,47.40
2019-04-21T01:19:00.455Z,47.90
2019-04-21T01:21:14.103Z,48.10
2019-04-21T01:23:38.158Z,48.60
2019-04-21T01:26:18.426Z,49.20
2019-04-21T01:28:50.482Z,49.30
2019-04-21T01:31:25.820Z,49.50
2019-04-21T01:33:57.695Z,50.30
2019-04-21T01:36:24.458Z,50.60
2019-04-21T01:38:59.030Z,51.10
2019-04-21T01:41:29.344Z,51.10
2019-04-21T01:43:49.066Z,51.40
2019-04-21T01:46:19.622Z,51.70
2019-04-21T01:48:51.805Z,52.50
2019-04-21T01:51:24.331Z,52.40
2019-04-21T01:54:18.504Z,52.70
2019-04-21T01:56:51.277Z,52.90
2019-04-21T01:59:14.433Z,53.30
2019-04-21T02:02:02.324Z,53.50
2019-04-21T02:04:34.703Z,53.60
2019-04-21T02:06:59.909Z,53.60
2019-04-21T02:09:29.282Z,53.90
2019-04-21T02:12:05.841Z,54.20
2019-04-21T02:14:40.947Z,54.40
2019-04-21T02:16:59.494Z,54.60
2019-04-21T02:19:26.469Z,54.70
2019-04-21T02:21:51.411Z,54.90
2019-04-21T02:24:38.693Z,54.80
2019-04-21T02:26:59.544Z,55.20
2019-04-21T02:29:34.433Z,54.90
2019-04-21T02:32:11.217Z,54.80
2019-04-21T02:34:43.027Z,54.90
2019-04-21T02:39:56.765Z,55.00
2019-04-21T02:42:01.738Z,55.10
2019-04-21T02:46:56.082Z,55.00
2019-04-21T02:49:45.172Z,55.20
2019-04-21T02:52:14.300Z,55.30
2019-04-21T02:54:49.802Z,55.50
2019-04-21T02:57:08.633Z,55.60
2019-04-21T03:00:25.079Z,55.50
2019-04-21T03:02:48.979Z,55.50
2019-04-21T03:05:42.884Z,55.80
2019-04-21T03:10:38.618Z,55.70
2019-04-21T03:13:11.551Z,55.90
2019-04-21T03:15:56.124Z,56.10
2019-04-21T03:18:06.353Z,56.20
2019-04-21T03:20:38.428Z,56.30
2019-04-21T03:23:13.397Z,56.00
2019-04-21T03:28:22.570Z,56.20
2019-04-21T03:31:02.558Z,56.10
2019-04-21T03:33:46.986Z,56.00
2019-04-21T03:40:26.168Z,56.40
2019-04-21T03:42:57.758Z,56.70
2019-04-21T03:45:36.848Z,56.80
2019-04-21T03:50:27.402Z,56.80
2019-04-21T03:53:06.999Z,57.10
2019-04-21T04:03:35.165Z,57.50
2019-04-21T04:09:01.490Z,57.20
2019-04-21T04:11:19.664Z,57.00
2019-04-21T04:13:47.826Z,57.10
2019-04-21T04:16:12.009Z,57.20
2019-04-21T04:18:46.122Z,57.10
2019-04-21T04:21:12.327Z,56.80
2019-04-21T04:23:51.374Z,56.60
2019-04-21T04:26:09.070Z,56.50
2019-04-21T04:31:15.375Z,56.60
2019-04-21T04:36:10.938Z,57.10
2019-04-21T04:38:41.617Z,57.40
2019-04-21T04:41:41.997Z,57.20
2019-04-21T04:44:07.132Z,57.50
2019-04-21T04:46:33.382Z,57.30
2019-04-21T04:49:08.129Z,56.90
2019-04-21T04:52:02.639Z,57.10
2019-04-21T04:56:29.112Z,57.30
2019-04-21T05:01:34.570Z,57.50
2019-04-21T05:03:56.665Z,57.70
2019-04-21T05:09:07.808Z,57.70
2019-04-21T05:14:03.334Z,57.20
2019-04-21T05:19:06.365Z,57.10
2019-04-21T05:21:30.283Z,56.90
2019-04-21T05:23:44.064Z,56.50
2019-04-21T05:26:10.894Z,56.50
2019-04-21T05:28:37.347Z,56.50
2019-04-21T05:31:25.454Z,56.20
2019-04-21T05:33:58.869Z,56.10
2019-04-21T05:36:50.535Z,56.20
2019-04-21T05:39:24.793Z,56.30
2019-04-21T05:41:47.459Z,56.50
2019-04-21T05:44:35.410Z,56.70
2019-04-21T05:47:11.214Z,56.20
2019-04-21T05:50:00.996Z,56.40
2019-04-21T05:52:27.830Z,56.20
2019-04-21T05:55:09.556Z,56.10
2019-04-21T05:57:33.500Z,56.10
2019-04-21T06:00:06.668Z,55.90
2019-04-21T06:02:40.106Z,56.10
2019-04-21T06:07:47.464Z,55.60
2019-04-21T06:10:08.865Z,55.40
2019-04-21T06:12:35.730Z,55.60
2019-04-21T06:15:19.707Z,55.50
2019-04-21T06:17:37.512Z,55.50
2019-04-21T06:20:05.630Z,55.40
2019-04-21T06:22:30.961Z,55.80
2019-04-21T06:25:31.156Z,55.80
2019-04-21T06:27:35.948Z,55.40
2019-04-21T06:30:01.922Z,55.00
2019-04-21T06:35:28.794Z,53.90
2019-04-21T06:37:43.546Z,53.60
2019-04-21T06:40:15.507Z,52.70
2019-04-21T06:42:34.087Z,52.80
2019-04-21T06:45:06.202Z,52.60
2019-04-21T06:50:04.634Z,52.50
2019-04-21T06:57:34.818Z,52.40
2019-04-21T07:00:03.171Z,51.50
2019-04-21T07:05:03.995Z,51.30
2019-04-21T07:07:27.952Z,50.90
2019-04-21T07:10:01.403Z,50.60
2019-04-21T07:12:28.608Z,50.50
2019-04-21T07:15:01.990Z,51.00
2019-04-21T07:17:30.637Z,50.50
2019-04-21T07:20:02.366Z,49.70
2019-04-21T07:22:32.398Z,49.20
2019-04-21T07:24:56.043Z,50.10
2019-04-21T07:27:30.178Z,48.80
2019-04-21T07:29:59.555Z,48.10
2019-04-21T07:32:26.777Z,45.90
2019-04-21T07:34:57.550Z,47.00
2019-04-21T07:37:24.006Z,46.30
2019-04-21T07:39:52.751Z,45.30
2019-04-21T07:42:18.499Z,46.40
2019-04-21T07:44:46.369Z,44.90
2019-04-21T07:47:23.401Z,45.90
2019-04-21T07:50:03.390Z,46.40
2019-04-21T07:52:53.371Z,45.30
2019-04-21T07:57:39.458Z,45.60
2019-04-21T08:02:51.172Z,44.20
2019-04-21T08:05:20.500Z,43.90
2019-04-21T08:07:55.822Z,42.70
2019-04-21T08:10:14.469Z,42.00
2019-04-21T08:12:41.902Z,42.80
2019-04-21T08:15:22.611Z,42.20
2019-04-21T08:17:41.525Z,43.00
2019-04-21T08:20:15.686Z,42.60
2019-04-21T08:22:46.536Z,43.60
2019-04-21T08:25:08.804Z,43.60
2019-04-21T08:27:50.555Z,42.40
2019-04-21T08:30:17.882Z,42.40
2019-04-21T08:33:04.380Z,43.00
2019-04-21T08:37:39.609Z,43.40
2019-04-21T08:42:39.963Z,42.30
2019-04-21T08:45:20.408Z,43.10
2019-04-21T08:47:42.636Z,42.20
2019-04-21T08:50:13.750Z,42.50
2019-04-21T08:55:22.444Z,40.50
2019-04-21T08:58:25.710Z,39.40
2019-04-21T09:01:06.626Z,39.50
2019-04-21T09:03:49.516Z,38.70
2019-04-21T09:06:27.386Z,39.10
2019-04-21T09:08:46.009Z,37.20
2019-04-21T09:11:12.658Z,37.10
2019-04-21T09:13:41.796Z,37.80
2019-04-21T09:16:22.035Z,37.60
2019-04-21T09:18:45.656Z,37.20
2019-04-21T09:21:28.561Z,36.10
2019-04-21T09:23:53.963Z,36.80
2019-04-21T09:26:26.330Z,36.80
2019-04-21T09:28:46.619Z,35.80
2019-04-21T09:31:05.319Z,33.80
2019-04-21T09:33:37.684Z,34.00
2019-04-21T09:36:04.996Z,33.80
2019-04-21T09:38:37.165Z,33.80
2019-04-21T09:41:00.498Z,33.30
2019-04-21T09:43:36.500Z,32.50
2019-04-21T09:45:58.890Z,31.90
2019-04-21T09:48:28.114Z,30.90
2019-04-21T09:50:57.368Z,31.20
2019-04-21T09:53:32.988Z,31.70
2019-04-21T09:56:00.950Z,30.80
2019-04-21T09:58:32.927Z,31.20
2019-04-21T10:01:06.189Z,31.10
2019-04-21T10:03:23.206Z,31.60
2019-04-21T10:05:51.987Z,31.50
2019-04-21T10:08:20.208Z,31.40
2019-04-21T10:10:49.070Z,31.50
2019-04-21T10:13:17.864Z,31.10
2019-04-21T10:15:48.431Z,30.60
2019-04-21T10:18:19.485Z,30.60
2019-04-21T10:20:47.202Z,30.60
2019-04-21T10:23:15.629Z,30.70
2019-04-21T10:25:43.534Z,29.70
2019-04-21T10:28:12.852Z,30.00
2019-04-21T10:30:40.826Z,29.80
2019-04-21T10:33:10.708Z,30.00
2019-04-21T10:35:39.385Z,29.80
2019-04-21T10:38:20.040Z,30.00
2019-04-21T10:40:37.333Z,30.00
2019-04-21T10:43:08.665Z,29.60
2019-04-21T10:45:36.880Z,29.30
2019-04-21T10:48:05.178Z,29.90
2019-04-21T10:50:32.895Z,29.70
2019-04-21T10:53:06.923Z,29.70
2019-04-21T10:55:48.640Z,29.60
2019-04-21T10:58:10.633Z,29.20
2019-04-21T11:00:39.843Z,29.20
2019-04-21T11:03:26.842Z,30.00
2019-04-21T11:05:55.156Z,29.70
2019-04-21T11:08:29.846Z,30.00
2019-04-21T11:10:53.993Z,29.80
2019-04-21T11:13:22.940Z,29.50
2019-04-21T11:15:50.927Z,29.90
2019-04-21T11:18:19.826Z,29.80
2019-04-21T11:20:48.933Z,29.90
2019-04-21T11:23:19.191Z,29.90
2019-04-21T11:25:48.188Z,29.90
2019-04-21T11:28:17.047Z,29.30
2019-04-21T11:30:48.688Z,28.90
2019-04-21T11:33:17.587Z,29.20
2019-04-21T11:35:47.199Z,29.20
2019-04-21T11:38:23.626Z,28.90
2019-04-21T11:40:49.780Z,29.40
2019-04-21T11:43:17.830Z,28.80
2019-04-21T11:45:46.318Z,29.00
2019-04-21T11:48:24.222Z,28.80
2019-04-21T11:50:53.111Z,29.00
2019-04-21T11:53:21.101Z,28.50
2019-04-21T11:55:52.003Z,28.10
2019-04-21T11:58:19.540Z,28.60
2019-04-21T12:00:52.193Z,29.20
2019-04-21T12:03:20.516Z,28.80
2019-04-21T12:05:49.433Z,29.20
2019-04-21T12:08:26.520Z,28.70
2019-04-21T12:10:47.279Z,28.50
2019-04-21T12:13:16.152Z,28.20
2019-04-21T12:15:45.124Z,27.80
2019-04-21T12:18:13.953Z,28.10
2019-04-21T12:20:43.130Z,28.30
2019-04-21T12:23:12.103Z,28.30
2019-04-21T12:25:45.284Z,28.40
2019-04-21T12:28:14.296Z,28.10
2019-04-21T12:30:43.426Z,28.10
2019-04-21T12:33:18.168Z,28.50
2019-04-21T12:35:46.183Z,28.90
2019-04-21T12:38:17.478Z,28.70
2019-04-21T12:40:46.541Z,28.00
2019-04-21T12:43:14.722Z,28.00
2019-04-21T12:45:44.095Z,27.80
2019-04-21T12:48:11.945Z,27.60
2019-04-21T12:50:39.664Z,27.40
2019-04-21T12:53:07.529Z,27.00
2019-04-21T12:55:40.619Z,26.80
2019-04-21T12:58:05.545Z,27.00
2019-04-21T13:00:33.453Z,27.10
2019-04-21T13:03:01.646Z,27.10
2019-04-21T13:05:29.617Z,27.20
2019-04-21T13:07:57.483Z,27.40
2019-04-21T13:10:26.401Z,27.60
2019-04-21T13:12:54.278Z,27.40
2019-04-21T13:15:22.268Z,27.60
2019-04-21T13:17:50.261Z,27.50
2019-04-21T13:20:19.148Z,27.40
2019-04-21T13:22:48.090Z,27.50
2019-04-21T13:25:16.167Z,27.20
2019-04-21T13:27:45.190Z,27.40
2019-04-21T13:30:14.670Z,27.50
2019-04-21T13:32:43.012Z,27.50
2019-04-21T13:35:11.065Z,27.60
2019-04-21T13:37:39.601Z,27.40
2019-04-21T13:40:45.094Z,27.30
2019-04-21T13:43:02.102Z,27.50
2019-04-21T13:45:27.823Z,27.80
2019-04-21T13:47:56.731Z,27.80
2019-04-21T13:50:25.602Z,27.90
2019-04-21T13:52:54.343Z,27.40
2019-04-21T13:55:23.434Z,27.30
2019-04-21T13:57:52.539Z,27.10
2019-04-21T14:00:21.517Z,26.50
2019-04-21T14:02:49.360Z,27.00
2019-04-21T14:05:18.141Z,26.70
2019-04-21T14:07:46.207Z,27.00
2019-04-21T14:10:16.129Z,27.00
2019-04-21T14:12:44.602Z,27.10
2019-04-21T14:15:12.709Z,26.90
2019-04-21T14:17:40.421Z,26.90
2019-04-21T14:20:09.501Z,26.60
2019-04-21T14:22:38.092Z,26.90
2019-04-21T14:25:07.845Z,26.70
2019-04-21T14:27:36.366Z,27.20
2019-04-21T14:30:08.407Z,27.10
2019-04-21T14:32:36.276Z,27.20
2019-04-21T14:35:04.885Z,27.70
2019-04-21T14:37:32.865Z,27.90
2019-04-21T14:40:06.978Z,28.40
2019-04-21T14:42:33.916Z,29.70
2019-04-21T14:45:03.099Z,30.90
2019-04-21T14:47:51.323Z,30.60
2019-04-21T14:50:44.505Z,31.90
2019-04-21T14:53:16.094Z,33.10
2019-04-21T14:55:45.751Z,33.20
2019-04-21T14:58:14.932Z,34.50
2019-04-21T15:01:00.252Z,34.90
2019-04-21T15:03:28.042Z,33.50
2019-04-21T15:05:55.808Z,34.40
2019-04-21T15:08:24.843Z,34.20
2019-04-21T15:10:52.845Z,34.60
2019-04-21T15:13:21.798Z,33.40
2019-04-21T15:15:49.925Z,33.70
2019-04-21T15:18:18.778Z,35.60
2019-04-21T15:20:48.615Z,35.40
2019-04-21T15:23:16.024Z,37.40
2019-04-21T15:25:44.016Z,36.20
2019-04-21T15:28:11.810Z,36.00
2019-04-21T15:30:40.787Z,36.40
2019-04-21T15:33:08.628Z,36.60
2019-04-21T15:35:37.339Z,36.60
2019-04-21T15:38:05.014Z,36.90
2019-04-21T15:40:41.833Z,38.20
2019-04-21T15:43:02.459Z,37.30
2019-04-21T15:45:30.613Z,37.60
2019-04-21T15:47:58.412Z,37.90
2019-04-21T15:50:26.490Z,38.00
2019-04-21T15:52:55.895Z,38.50
2019-04-21T15:55:41.445Z,37.80
2019-04-21T15:58:22.918Z,38.00
2019-04-21T16:00:56.640Z,39.50
2019-04-21T16:03:24.803Z,41.60
2019-04-21T16:05:53.671Z,45.50
2019-04-21T16:08:22.026Z,49.10
2019-04-21T16:10:56.222Z,50.20
2019-04-21T16:13:19.414Z,51.20
2019-04-21T16:15:48.448Z,51.80
2019-04-21T16:18:16.277Z,52.90
2019-04-21T16:20:43.976Z,53.30
2019-04-21T16:23:12.819Z,54.10
2019-04-21T16:25:44.324Z,54.60
2019-04-21T16:28:13.340Z,55.40
2019-04-21T16:30:42.429Z,56.00
2019-04-21T16:33:10.416Z,57.70
2019-04-21T16:35:39.947Z,59.50
2019-04-21T16:38:07.896Z,60.20
2019-04-21T16:40:48.378Z,60.60
2019-04-21T16:43:05.964Z,61.00
2019-04-21T16:45:36.742Z,61.70
2019-04-21T16:48:05.352Z,62.30
2019-04-21T16:50:34.642Z,62.60
2019-04-21T16:53:08.380Z,63.00
2019-04-21T16:55:41.481Z,63.70
2019-04-21T16:58:28.926Z,64.10
2019-04-21T17:01:03.243Z,63.80
2019-04-21T17:03:30.662Z,64.20
2019-04-21T17:06:00.496Z,64.80
2019-04-21T17:08:28.850Z,65.80
2019-04-21T17:11:06.251Z,66.00
2019-04-21T17:13:27.214Z,67.10
2019-04-21T17:16:15.338Z,67.70
2019-04-21T17:18:43.495Z,67.50
2019-04-21T17:20:59.684Z,67.80
2019-04-21T17:23:25.287Z,68.20
2019-04-21T17:25:53.178Z,67.70
2019-04-21T17:28:21.625Z,67.90
2019-04-21T17:30:50.430Z,68.00
2019-04-21T17:33:22.670Z,68.30
2019-04-21T17:35:49.164Z,69.80
2019-04-21T17:38:18.576Z,71.10
2019-04-21T17:40:47.480Z,72.20
2019-04-21T17:43:17.981Z,72.50
2019-04-21T17:45:46.568Z,72.50
2019-04-21T17:48:16.386Z,71.70
2019-04-21T17:51:15.541Z,71.30
2019-04-21T17:54:19.870Z,70.60
2019-04-21T17:59:43.397Z,70.60
2019-04-21T18:02:05.074Z,70.80
2019-04-21T18:04:25.903Z,70.90
2019-04-21T18:07:26.180Z,71.00
2019-04-21T18:10:02.115Z,71.10
2019-04-21T18:12:24.990Z,70.90
2019-04-21T18:14:51.573Z,70.70
2019-04-21T18:17:10.731Z,70.30
2019-04-21T18:19:41.779Z,69.20
2019-04-21T18:22:47.936Z,68.30
2019-04-21T18:25:28.078Z,68.30
2019-04-21T18:27:48.518Z,67.80
2019-04-21T18:30:46.801Z,66.80
2019-04-21T18:33:22.294Z,65.80
2019-04-21T18:36:05.088Z,65.40
2019-04-21T18:39:00.164Z,65.20
2019-04-21T18:41:13.355Z,65.00
2019-04-21T18:44:13.348Z,64.70
2019-04-21T18:46:53.916Z,64.80
2019-04-21T18:49:06.540Z,64.70
2019-04-21T18:52:01.210Z,64.60
2019-04-21T18:54:41.313Z,64.60
2019-04-21T18:57:04.496Z,64.20
2019-04-21T18:59:31.337Z,64.60
2019-04-21T19:02:02.436Z,65.30
2019-04-21T19:04:28.579Z,66.00
2019-04-21T19:07:08.144Z,66.80
2019-04-21T19:10:00.751Z,68.80
2019-04-21T19:12:12.749Z,72.20
2019-04-21T19:14:43.141Z,74.70
2019-04-21T19:17:38.380Z,76.10
2019-04-21T19:20:04.693Z,77.50
2019-04-21T19:22:15.584Z,77.80
2019-04-21T19:24:41.234Z,78.40
2019-04-21T19:27:11.975Z,80.00
2019-04-21T19:29:45.513Z,81.80
2019-04-21T19:32:08.693Z,81.70
2019-04-21T19:34:25.966Z,84.10
2019-04-21T19:36:57.641Z,83.90
2019-04-21T19:39:36.078Z,85.50
2019-04-21T19:42:00.554Z,85.10
2019-04-21T19:44:37.975Z,86.70
2019-04-21T19:47:08.418Z,87.50
2019-04-21T19:49:38.283Z,86.80
2019-04-21T19:51:56.532Z,87.60
2019-04-21T19:54:25.205Z,88.70
2019-04-21T19:56:47.096Z,90.00
2019-04-21T19:59:20.903Z,90.00
2019-04-21T20:01:46.780Z,89.60
2019-04-21T20:04:14.856Z,89.10
2019-04-21T20:06:52.033Z,89.40
2019-04-21T20:09:32.525Z,89.40
2019-04-21T20:12:00.890Z,89.30
2019-04-21T20:14:49.271Z,90.00
2019-04-21T20:16:57.854Z,90.00
2019-04-21T20:19:13.887Z,89.80
2019-04-21T20:21:41.294Z,89.40
2019-04-21T20:24:14.054Z,89.70
2019-04-21T20:26:42.507Z,90.10
2019-04-21T20:29:20.856Z,90.10
2019-04-21T20:31:54.633Z,90.10
2019-04-21T20:34:30.097Z,90.30
2019-04-21T20:37:00.353Z,90.30
2019-04-21T20:39:15.182Z,90.30
2019-04-21T20:41:49.638Z,90.30
2019-04-21T20:44:27.766Z,90.20
2019-04-21T20:46:52.910Z,90.40
2019-04-21T20:49:20.325Z,90.50
2019-04-21T20:51:54.405Z,90.50
2019-04-21T20:54:27.167Z,90.50
2019-04-21T20:56:51.502Z,91.10
2019-04-21T20:59:19.545Z,91.20
2019-04-21T21:01:48.962Z,91.20
2019-04-21T21:04:17.457Z,91.20
2019-04-21T21:06:46.938Z,91.30
2019-04-21T21:09:22.204Z,91.40
2019-04-21T21:11:56.790Z,91.50
2019-04-21T21:14:16.003Z,91.40
2019-04-21T21:16:51.809Z,91.40
2019-04-21T21:19:20.997Z,91.50
2019-04-21T21:21:44.181Z,91.80
2019-04-21T21:24:21.804Z,91.90
2019-04-21T21:26:49.896Z,92.00
2019-04-21T21:29:21.330Z,92.00
2019-04-21T21:31:47.489Z,92.00
2019-04-21T21:34:21.183Z,91.80
2019-04-21T21:36:51.071Z,91.60
2019-04-21T21:39:18.406Z,91.30
2019-04-21T21:41:35.911Z,91.10
2019-04-21T21:44:05.803Z,91.20
2019-04-21T21:46:45.708Z,91.30
2019-04-21T21:49:07.471Z,91.20
2019-04-21T21:51:39.260Z,91.00
2019-04-21T21:53:57.089Z,91.30
2019-04-21T21:56:25.071Z,91.10
2019-04-21T21:58:53.824Z,90.80
2019-04-21T22:01:31.864Z,91.00
2019-04-21T22:04:01.676Z,90.90
2019-04-21T22:06:23.932Z,91.30
2019-04-21T22:08:52.178Z,91.30
2019-04-21T22:11:20.142Z,91.50
2019-04-21T22:13:55.681Z,91.70
2019-04-21T22:16:19.613Z,91.50
2019-04-21T22:19:08.015Z,91.60
2019-04-21T22:21:38.564Z,91.50
2019-04-21T22:23:57.074Z,91.50
2019-04-21T22:26:15.764Z,91.50
2019-04-21T22:28:43.616Z,91.30
2019-04-21T22:31:15.241Z,91.40
2019-04-21T22:33:49.412Z,91.20
2019-04-21T22:36:29.199Z,91.40
2019-04-21T22:38:51.909Z,91.30
2019-04-21T22:41:18.902Z,91.20
2019-04-21T22:43:43.737Z,91.20
2019-04-21T22:46:10.665Z,91.20
2019-04-21T22:48:45.356Z,90.80
2019-04-21T22:51:20.548Z,91.10
2019-04-21T22:53:46.540Z,90.80
2019-04-21T22:56:14.945Z,91.00
2019-04-21T22:58:42.607Z,91.00
2019-04-21T23:01:09.623Z,91.10
2019-04-21T23:03:42.570Z,90.90
2019-04-21T23:06:16.223Z,90.60
2019-04-21T23:08:41.716Z,89.40
2019-04-21T23:11:11.887Z,88.50
2019-04-21T23:13:38.638Z,88.30
2019-04-21T23:16:07.987Z,89.40
2019-04-21T23:18:47.992Z,88.40
2019-04-21T23:21:16.360Z,87.50
2019-04-21T23:23:54.647Z,88.60
2019-04-21T23:26:23.761Z,89.00
2019-04-21T23:28:57.116Z,89.10
2019-04-21T23:31:27.227Z,89.10
2019-04-21T23:33:32.883Z,88.70
2019-04-21T23:36:08.506Z,89.50
2019-04-21T23:38:37.528Z,89.60
2019-04-21T23:41:02.383Z,89.90
2019-04-21T23:43:32.745Z,89.60
2019-04-21T23:46:04.219Z,89.90
2019-04-21T23:48:39.056Z,89.90
2019-04-21T23:51:13.884Z,90.00
2019-04-21T23:53:29.075Z,89.20
2019-04-21T23:56:01.225Z,89.60
2019-04-21T23:58:31.746Z,90.10
